Time;durP1;ratioP1;P1;durP2;ratioP2;P2;SDS_P1;SDS_P2;PMS_P1;PMS_P2;Temp;Humidity;BMP_temperature;BMP_pressure;BME280_temperature;BME280_humidity;BME280_pressure;Samples;Min_cycle;Max_cycle;Signal;HPM_P1;HPM_P2
2021/08/26 00:06:49;;;;;;;1.17;0.90;;;;;;;14.27;100.00;100358.91;5010552;28;20199;-72
2021/08/26 00:09:17;;;;;;;2.40;0.83;;;;;;;14.26;100.00;100371.03;5010456;28;20664;-71
2021/08/26 00:11:48;;;;;;;0.97;0.83;;;;;;;14.23;100.00;100362.69;5010520;28;20173;-71
2021/08/26 00:14:15;;;;;;;3.13;1.00;;;;;;;14.22;100.00;100367.38;5012200;28;20237;-72
2021/08/26 00:16:41;;;;;;;1.80;1.10;;;;;;;14.21;100.00;100359.47;5012941;28;20211;-72
2021/08/26 00:19:08;;;;;;;1.43;1.10;;;;;;;14.20;100.00;100355.91;5009318;28;20235;-72
2021/08/26 00:21:33;;;;;;;0.43;0.43;;;;;;;14.18;100.00;100362.91;5014267;28;20220;-72
2021/08/26 00:23:58;;;;;;;1.80;1.00;;;;;;;14.20;100.00;100355.13;5013743;28;20278;-72
2021/08/26 00:26:24;;;;;;;2.73;1.20;;;;;;;14.20;100.00;100364.16;5014218;28;20227;-72
2021/08/26 00:28:49;;;;;;;1.37;1.10;;;;;;;14.21;100.00;100363.03;5014046;28;20169;-72
2021/08/26 00:31:14;;;;;;;1.90;1.10;;;;;;;14.20;100.00;100355.91;5013929;28;20189;-72
2021/08/26 00:33:40;;;;;;;2.70;1.07;;;;;;;14.22;100.00;100352.84;5013818;28;20192;-71
2021/08/26 00:36:05;;;;;;;0.90;0.73;;;;;;;14.19;100.00;100348.03;5014171;28;20222;-72
2021/08/26 00:38:30;;;;;;;1.97;1.17;;;;;;;14.22;100.00;100344.59;5013967;28;20657;-71
2021/08/26 00:40:59;;;;;;;3.77;1.27;;;;;;;14.23;100.00;100346.19;5013879;28;20172;-72
2021/08/26 00:43:27;;;;;;;1.37;1.27;;;;;;;14.22;100.00;100345.38;5013929;28;20181;-72
2021/08/26 00:45:53;;;;;;;1.63;1.20;;;;;;;14.20;100.00;100344.94;5013580;28;20318;-71
2021/08/26 00:48:23;;;;;;;3.13;1.73;;;;;;;14.21;100.00;100346.53;5013994;28;20201;-72
2021/08/26 00:50:54;;;;;;;2.33;1.10;;;;;;;14.21;100.00;100346.53;5013956;28;20662;-72
2021/08/26 00:53:23;;;;;;;1.10;1.03;;;;;;;14.21;100.00;100334.75;5013863;28;20192;-72
2021/08/26 00:55:48;;;;;;;4.40;1.93;;;;;;;14.21;100.00;100338.28;5013418;28;20538;-72
2021/08/26 00:58:14;;;;;;;1.17;0.80;;;;;;;14.22;100.00;100339.09;5013586;28;20200;-71
2021/08/26 01:00:44;;;;;;;5.73;1.83;;;;;;;14.21;100.00;100486.69;5012374;28;20207;-72
2021/08/26 01:03:13;;;;;;;2.10;1.50;;;;;;;14.20;100.00;100368.84;5013871;28;20169;-72
2021/08/26 01:06:13;;;;;;;4.93;1.43;;;;;;;14.18;100.00;100314.25;5013180;28;20346;-72
2021/08/26 01:08:55;;;;;;;3.40;1.70;;;;;;;14.19;100.00;100315.84;5009774;28;20195;-72
2021/08/26 01:11:22;;;;;;;2.90;1.40;;;;;;;14.20;100.00;100322.16;5013635;28;20238;-72
2021/08/26 01:13:51;;;;;;;4.47;1.70;;;;;;;14.21;100.00;100318.25;5013065;28;20172;-72
2021/08/26 01:16:16;;;;;;;1.47;1.20;;;;;;;14.22;100.00;100323.41;5013324;28;20177;-72
2021/08/26 01:18:44;;;;;;;6.23;2.37;;;;;;;14.22;100.00;100328.91;5013239;28;20400;-72
2021/08/26 01:21:15;;;;;;;4.80;1.53;;;;;;;14.22;100.00;100317.91;5013183;28;20234;-73
2021/08/26 01:23:43;;;;;;;3.10;1.33;;;;;;;14.22;100.00;100312.41;5013174;28;20260;-72
2021/08/26 01:26:17;;;;;;;3.43;1.40;;;;;;;14.22;100.00;100311.63;5012956;28;20173;-72
2021/08/26 01:28:46;;;;;;;6.73;1.40;;;;;;;14.23;100.00;100319.50;5013085;28;20635;-71
2021/08/26 01:31:12;;;;;;;1.63;1.40;;;;;;;14.23;100.00;100310.47;5005472;28;20550;-72
2021/08/26 01:33:38;;;;;;;3.10;1.73;;;;;;;14.23;100.00;100307.72;5012250;28;20188;-73
2021/08/26 01:36:04;;;;;;;2.73;1.50;;;;;;;14.23;100.00;100311.28;5004541;28;20184;-72
2021/08/26 01:38:30;;;;;;;4.43;1.57;;;;;;;14.26;100.00;100307.03;5012834;28;20191;-72
2021/08/26 01:40:55;;;;;;;1.40;1.13;;;;;;;14.20;100.00;100319.41;5011688;28;20542;-73
2021/08/26 01:43:23;;;;;;;1.03;0.93;;;;;;;14.17;100.00;100298.88;5012879;28;20172;-72
2021/08/26 01:45:48;;;;;;;3.10;1.27;;;;;;;14.18;100.00;100294.22;5012517;28;20212;-72
2021/08/26 01:48:15;;;;;;;3.23;1.20;;;;;;;14.19;100.00;100296.63;5012815;28;20392;-72
2021/08/26 01:50:42;;;;;;;1.20;0.90;;;;;;;14.16;100.00;100288.22;5012592;28;20233;-73
2021/08/26 01:53:07;;;;;;;2.83;1.47;;;;;;;14.14;100.00;100288.56;5012604;28;20212;-72
2021/08/26 01:55:33;;;;;;;4.93;1.37;;;;;;;14.15;100.00;100287.41;5012431;28;20208;-72
2021/08/26 01:58:01;;;;;;;5.67;1.70;;;;;;;14.15;100.00;100278.38;5012568;28;20172;-72
2021/08/26 02:00:27;;;;;;;2.37;0.73;;;;;;;14.13;100.00;100281.47;5012490;28;20261;-73
2021/08/26 02:02:52;;;;;;;3.10;1.70;;;;;;;14.08;100.00;100278.94;5012440;28;20180;-72
2021/08/26 02:05:18;;;;;;;1.47;1.00;;;;;;;14.10;100.00;100284.91;5012167;28;20231;-71
2021/08/26 02:07:45;;;;;;;8.13;2.03;;;;;;;14.07;100.00;100279.28;5012512;28;20177;-72
2021/08/26 02:10:10;;;;;;;2.23;1.30;;;;;;;14.06;100.00;100281.22;5012351;28;20191;-72
2021/08/26 02:12:36;;;;;;;4.13;1.37;;;;;;;14.06;100.00;100274.94;5012314;28;20204;-72
2021/08/26 02:15:01;;;;;;;1.33;1.20;;;;;;;14.04;100.00;100277.22;5012075;28;20181;-72
2021/08/26 02:17:27;;;;;;;2.63;1.97;;;;;;;14.01;100.00;100289.66;5012079;28;20188;-72
2021/08/26 02:19:52;;;;;;;7.50;1.80;;;;;;;14.03;100.00;100284.63;5012019;28;20179;-72
2021/08/26 02:22:17;;;;;;;4.90;1.80;;;;;;;14.04;100.00;100289.00;5012060;28;20207;-73
2021/08/26 02:24:43;;;;;;;1.37;1.27;;;;;;;14.07;100.00;100287.53;5011714;28;20212;-72
2021/08/26 02:27:08;;;;;;;2.27;1.43;;;;;;;14.07;100.00;100280.09;5011913;28;20177;-72
2021/08/26 02:29:33;;;;;;;5.97;1.80;;;;;;;14.07;100.00;100271.03;5011960;28;20198;-72
2021/08/26 02:31:58;;;;;;;2.23;1.13;;;;;;;14.08;100.00;100267.97;5011972;28;20181;-72
2021/08/26 02:34:24;;;;;;;5.47;1.83;;;;;;;14.07;100.00;100271.03;5011522;28;20192;-72
2021/08/26 02:36:49;;;;;;;5.73;2.27;;;;;;;14.04;100.00;100267.03;5011197;28;20381;-72
2021/08/26 02:39:14;;;;;;;4.17;1.83;;;;;;;14.06;100.00;100264.75;5011714;28;20515;-71
2021/08/26 02:41:40;;;;;;;3.27;2.13;;;;;;;14.06;100.00;100264.75;5011812;28;20181;-72
2021/08/26 02:44:05;;;;;;;5.10;1.97;;;;;;;14.04;100.00;100263.47;5011408;28;20194;-72
2021/08/26 02:46:31;;;;;;;2.73;1.40;;;;;;;13.99;100.00;100265.28;5011745;28;20537;-72
2021/08/26 02:48:56;;;;;;;3.93;1.50;;;;;;;14.00;100.00;100266.88;5011497;28;20264;-72
2021/08/26 02:51:21;;;;;;;10.43;2.60;;;;;;;13.97;100.00;100266.75;5011860;28;20181;-72
2021/08/26 02:53:47;;;;;;;4.20;1.20;;;;;;;13.96;100.00;100267.91;5011213;28;20694;-72
2021/08/26 02:56:12;;;;;;;4.47;1.43;;;;;;;13.95;100.00;100291.03;5011461;28;20267;-72
2021/08/26 02:58:38;;;;;;;5.67;1.80;;;;;;;13.92;100.00;100269.75;5011438;28;20295;-72
2021/08/26 03:01:03;;;;;;;5.67;1.80;;;;;;;13.92;100.00;100264.25;5011468;28;20176;-72
2021/08/26 03:03:29;;;;;;;5.63;1.60;;;;;;;13.90;100.00;100267.34;5011391;28;20177;-72
2021/08/26 03:05:54;;;;;;;2.60;1.50;;;;;;;13.95;100.00;100269.06;5011254;28;21036;-72
2021/08/26 03:08:20;;;;;;;8.23;1.83;;;;;;;13.96;100.00;100265.16;5011265;28;20172;-72
2021/08/26 03:10:45;;;;;;;2.80;1.57;;;;;;;13.97;100.00;100267.56;5011297;28;20183;-72
2021/08/26 03:13:11;;;;;;;4.90;2.03;;;;;;;13.94;100.00;100267.44;5011278;28;20596;-71
2021/08/26 03:15:36;;;;;;;8.83;2.23;;;;;;;13.93;100.00;100265.84;5010936;28;20180;-72
2021/08/26 03:18:01;;;;;;;5.77;1.73;;;;;;;13.93;100.00;100268.59;5010939;28;20190;-72
2021/08/26 03:20:27;;;;;;;2.90;1.53;;;;;;;13.92;100.00;100265.03;5011025;28;20177;-72
2021/08/26 03:22:53;;;;;;;5.97;2.27;;;;;;;13.93;100.00;100263.09;5011068;28;20175;-72
2021/08/26 03:25:18;;;;;;;10.00;2.50;;;;;;;13.93;100.00;100268.59;5010631;28;20303;-72
2021/08/26 03:27:44;;;;;;;6.50;1.97;;;;;;;13.90;100.00;100270.06;5011019;28;20180;-72
2021/08/26 03:30:10;;;;;;;4.40;1.80;;;;;;;13.91;100.00;100268.94;5010853;28;20177;-73
2021/08/26 03:32:35;;;;;;;7.13;1.73;;;;;;;13.91;100.00;100271.69;5010872;28;20528;-72
2021/08/26 03:35:01;;;;;;;3.63;1.70;;;;;;;13.90;100.00;100256.34;5010615;28;20644;-72
2021/08/26 03:37:26;;;;;;;4.67;2.07;;;;;;;13.88;100.00;100266.03;5011015;28;20200;-72
2021/08/26 03:39:51;;;;;;;2.50;1.60;;;;;;;13.83;100.00;100263.50;5010705;28;20184;-72
2021/08/26 03:42:17;;;;;;;8.07;2.20;;;;;;;13.81;100.00;100272.09;5010945;28;20644;-72
2021/08/26 03:44:42;;;;;;;7.33;2.43;;;;;;;13.78;100.00;100260.97;5010380;28;20691;-72
2021/08/26 03:47:08;;;;;;;7.47;1.77;;;;;;;13.79;100.00;100263.41;5010619;28;20173;-72
2021/08/26 03:49:34;;;;;;;11.07;2.30;;;;;;;13.80;100.00;100270.50;5010570;28;20191;-72
2021/08/26 03:52:00;;;;;;;12.43;3.30;;;;;;;13.79;100.00;100277.13;5010700;28;20319;-73
2021/08/26 03:54:25;;;;;;;6.40;2.00;;;;;;;13.80;100.00;100288.91;5010353;28;20185;-72
2021/08/26 03:56:51;;;;;;;3.30;2.17;;;;;;;13.77;100.00;100416.69;5011007;28;20640;-72
2021/08/26 03:59:17;;;;;;;4.53;2.20;;;;;;;13.74;100.00;100279.25;5010611;28;20188;-73
2021/08/26 04:01:43;;;;;;;5.67;1.77;;;;;;;13.76;100.00;100277.81;5010518;28;20195;-72
2021/08/26 04:04:08;;;;;;;3.57;1.60;;;;;;;13.75;100.00;100276.19;5010230;28;20208;-72
2021/08/26 04:06:33;;;;;;;3.13;1.30;;;;;;;13.75;100.00;100251.47;5009238;28;20180;-73
2021/08/26 04:08:58;;;;;;;4.53;1.57;;;;;;;13.72;100.00;100254.06;5010439;28;20172;-72
2021/08/26 04:11:24;;;;;;;2.23;1.33;;;;;;;13.60;100.00;100252.09;5010523;28;20197;-72
2021/08/26 04:13:49;;;;;;;3.43;1.30;;;;;;;13.52;100.00;100258.47;5010320;28;20359;-72
2021/08/26 04:16:15;;;;;;;4.03;2.30;;;;;;;13.45;100.00;100250.75;5010433;28;20187;-72
2021/08/26 04:18:40;;;;;;;3.97;2.30;;;;;;;13.37;100.00;100251.63;5010268;28;20547;-72
2021/08/26 04:21:06;;;;;;;4.47;1.40;;;;;;;13.32;100.00;100251.84;5010401;28;20259;-72
2021/08/26 04:23:31;;;;;;;3.00;1.70;;;;;;;13.24;100.00;100249.97;5009027;28;20378;-72
2021/08/26 04:25:56;;;;;;;6.70;1.93;;;;;;;13.22;100.00;100283.22;5010074;28;20727;-72
2021/08/26 04:28:22;;;;;;;4.23;2.40;;;;;;;13.17;100.00;100282.59;5010322;28;20575;-71
2021/08/26 04:30:47;;;;;;;3.43;1.07;;;;;;;13.15;100.00;100273.84;5010411;28;20283;-73
2021/08/26 04:33:13;;;;;;;2.97;1.50;;;;;;;13.08;100.00;100264.22;5010515;28;20180;-73
2021/08/26 04:35:38;;;;;;;2.70;1.60;;;;;;;13.03;100.00;100255.41;5010510;28;20184;-73
2021/08/26 04:38:03;;;;;;;18.07;2.20;;;;;;;12.99;100.00;100268.94;5010345;28;20192;-73
2021/08/26 04:40:29;;;;;;;6.50;1.87;;;;;;;12.95;100.00;100250.75;5010532;28;20184;-72
2021/08/26 04:42:54;;;;;;;5.60;1.47;;;;;;;12.93;100.00;100274.97;5010738;28;20528;-72
2021/08/26 04:45:20;;;;;;;5.60;1.70;;;;;;;12.92;100.00;100267.88;5009111;28;20212;-73
2021/08/26 04:47:45;;;;;;;5.33;1.53;;;;;;;12.93;100.00;100266.75;5010768;28;20172;-72
2021/08/26 04:50:11;;;;;;;7.53;2.00;;;;;;;12.92;100.00;100271.44;5010400;28;20259;-72
2021/08/26 04:52:36;;;;;;;5.63;2.17;;;;;;;12.95;100.00;100272.69;5008770;28;20674;-72
2021/08/26 04:55:02;;;;;;;4.50;1.60;;;;;;;12.94;100.00;100301.25;5009917;28;20177;-72
2021/08/26 04:57:28;;;;;;;2.50;1.60;;;;;;;12.92;100.00;100287.88;5010102;28;20215;-73
2021/08/26 04:59:53;;;;;;;1.83;1.50;;;;;;;12.92;100.00;100289.81;5011101;28;20592;-72
2021/08/26 05:02:18;;;;;;;6.73;2.37;;;;;;;12.93;100.00;100297.72;5013632;28;20180;-73
2021/08/26 05:04:44;;;;;;;6.83;2.30;;;;;;;12.96;100.00;100301.72;5013493;28;20557;-72
2021/08/26 05:07:09;;;;;;;5.77;2.90;;;;;;;12.97;100.00;100315.09;5013548;28;20541;-72
2021/08/26 05:09:34;;;;;;;4.13;2.00;;;;;;;12.99;100.00;100310.09;5013496;28;20268;-72
2021/08/26 05:12:03;;;;;;;3.37;1.93;;;;;;;13.01;100.00;100317.97;5013451;28;20181;-72
2021/08/26 05:14:28;;;;;;;6.27;1.80;;;;;;;13.07;100.00;100313.94;5013241;28;20573;-71
2021/08/26 05:16:54;;;;;;;4.30;2.10;;;;;;;13.13;100.00;100342.78;5013177;28;20215;-71
2021/08/26 05:19:19;;;;;;;7.00;1.30;;;;;;;13.16;100.00;100324.84;5013574;28;20218;-72
2021/08/26 05:21:45;;;;;;;4.13;1.93;;;;;;;13.21;100.00;100344.72;5013293;28;20176;-73
2021/08/26 05:24:10;;;;;;;3.53;1.93;;;;;;;13.26;100.00;100335.47;5013131;28;20196;-72
2021/08/26 05:26:35;;;;;;;6.30;1.70;;;;;;;13.27;100.00;100348.84;5013236;28;20188;-73
2021/08/26 05:29:01;;;;;;;7.77;1.60;;;;;;;13.30;100.00;100363.84;5013105;28;20169;-72
2021/08/26 05:31:26;;;;;;;8.33;3.00;;;;;;;13.35;100.00;100363.69;5013036;28;20340;-72
2021/08/26 05:33:52;;;;;;;5.87;2.27;;;;;;;13.36;100.00;100362.53;5013029;28;20171;-72
2021/08/26 05:36:17;;;;;;;11.20;2.30;;;;;;;13.37;100.00;100339.44;5012967;28;20693;-73
2021/08/26 05:38:42;;;;;;;6.50;2.90;;;;;;;13.40;100.00;100331.34;5013003;28;20173;-72
2021/08/26 05:41:08;;;;;;;3.60;2.00;;;;;;;13.44;100.00;100331.47;5012998;28;20168;-73
2021/08/26 05:43:33;;;;;;;7.00;3.03;;;;;;;13.48;100.00;100368.13;5012702;28;20620;-72
2021/08/26 05:45:58;;;;;;;3.23;1.60;;;;;;;13.52;100.00;100362.75;5012506;28;20208;-72
2021/08/26 05:48:23;;;;;;;2.40;1.50;;;;;;;13.53;100.00;100361.63;5012672;28;20173;-72
2021/08/26 05:50:49;;;;;;;3.20;1.20;;;;;;;13.56;100.00;100341.72;5012752;28;20183;-72
2021/08/26 05:53:14;;;;;;;7.07;1.83;;;;;;;13.60;100.00;100335.25;5011258;28;20173;-72
2021/08/26 05:55:39;;;;;;;11.73;2.23;;;;;;;13.63;100.00;100336.53;5011069;28;20174;-72
2021/08/26 05:58:05;;;;;;;3.73;1.20;;;;;;;13.66;100.00;100331.16;5012607;28;20517;-73
2021/08/26 06:00:30;;;;;;;6.53;1.53;;;;;;;13.71;100.00;100332.91;5012439;28;20666;-73
2021/08/26 06:02:55;;;;;;;2.53;1.50;;;;;;;13.73;100.00;100338.84;5012460;28;20208;-73
2021/08/26 06:05:21;;;;;;;4.43;1.50;;;;;;;13.75;100.00;100335.81;5012231;28;20686;-72
2021/08/26 06:07:47;;;;;;;3.17;1.23;;;;;;;13.77;100.00;100334.31;5012324;28;20187;-72
2021/08/26 06:10:13;;;;;;;4.83;1.70;;;;;;;13.83;100.00;100334.91;5012308;28;20168;-72
2021/08/26 06:12:40;;;;;;;3.93;1.97;;;;;;;13.89;100.00;100330.84;5011048;28;20260;-73
2021/08/26 06:15:08;;;;;;;3.70;1.93;;;;;;;13.96;100.00;100333.84;5010839;28;20187;-72
2021/08/26 06:17:33;;;;;;;8.47;2.67;;;;;;;14.01;100.00;100333.63;5010546;28;20192;-73
2021/08/26 06:19:59;;;;;;;6.23;1.93;;;;;;;14.06;100.00;100330.69;5010174;28;20280;-72
2021/08/26 06:22:24;;;;;;;3.67;2.07;;;;;;;14.09;100.00;100327.25;5011936;28;20219;-72
2021/08/26 06:24:49;;;;;;;4.43;1.53;;;;;;;14.15;100.00;100314.09;5011833;28;20335;-73
2021/08/26 06:27:15;;;;;;;1.83;1.40;;;;;;;14.22;100.00;100308.88;5012107;28;20208;-72
2021/08/26 06:29:40;;;;;;;12.77;2.83;;;;;;;14.31;100.00;100309.56;5011844;28;20188;-72
2021/08/26 06:32:06;;;;;;;5.17;2.00;;;;;;;14.39;100.00;100307.88;5011987;28;20271;-72
2021/08/26 06:34:33;;;;;;;5.33;2.03;;;;;;;14.46;100.00;100306.19;5011484;28;20235;-72
2021/08/26 06:36:59;;;;;;;5.57;1.97;;;;;;;14.46;100.00;100303.44;5009001;28;20192;-72
2021/08/26 06:39:24;;;;;;;4.37;1.90;;;;;;;14.47;100.00;100305.06;5011361;28;20194;-73
2021/08/26 06:41:50;;;;;;;5.73;2.07;;;;;;;14.58;100.00;100308.97;5012263;28;20433;-72
2021/08/26 06:44:15;;;;;;;5.43;3.10;;;;;;;14.64;100.00;100319.75;5011785;28;20529;-73
2021/08/26 06:46:40;;;;;;;5.23;2.10;;;;;;;14.68;100.00;100302.22;5012383;28;20191;-72
2021/08/26 06:49:05;;;;;;;3.53;2.10;;;;;;;14.79;100.00;100313.59;5011879;28;20176;-72
2021/08/26 06:51:31;;;;;;;5.73;2.27;;;;;;;14.86;100.00;100311.06;5012079;28;20184;-72
2021/08/26 06:53:56;;;;;;;2.47;1.97;;;;;;;14.89;100.00;100316.66;5009495;28;20191;-72
2021/08/26 06:56:21;;;;;;;3.57;1.77;;;;;;;14.89;100.00;100313.91;5008445;28;20195;-72
2021/08/26 06:58:47;;;;;;;5.37;2.33;;;;;;;14.88;100.00;100328.81;5006601;28;20189;-72
2021/08/26 07:01:12;;;;;;;5.33;2.50;;;;;;;14.84;100.00;100327.91;5003999;28;20205;-73
2021/08/26 07:03:37;;;;;;;6.83;1.93;;;;;;;14.82;100.00;100334.91;5011792;28;20260;-73
2021/08/26 07:06:03;;;;;;;6.57;2.60;;;;;;;14.78;100.00;100329.28;5011774;28;20251;-73
2021/08/26 07:08:28;;;;;;;5.23;2.40;;;;;;;14.78;100.00;100332.03;5011714;28;20181;-72
2021/08/26 07:10:54;;;;;;;6.83;2.57;;;;;;;14.79;100.00;100336.41;5011730;28;20239;-72
2021/08/26 07:13:19;;;;;;;9.17;2.60;;;;;;;14.85;100.00;100336.97;5011295;28;20184;-72
2021/08/26 07:15:45;;;;;;;7.67;2.93;;;;;;;14.92;100.00;100342.72;5011411;28;20180;-72
2021/08/26 07:18:11;;;;;;;5.77;1.87;;;;;;;14.93;100.00;100335.25;5011434;28;20417;-73
2021/08/26 07:20:36;;;;;;;6.90;2.77;;;;;;;14.91;100.00;100334.81;5010245;28;20659;-72
2021/08/26 07:23:02;;;;;;;5.80;2.10;;;;;;;14.91;100.00;100326.56;5011246;28;20180;-72
2021/08/26 07:25:27;;;;;;;4.20;2.37;;;;;;;14.91;100.00;100327.34;5011269;28;20236;-72
2021/08/26 07:27:52;;;;;;;8.73;3.07;;;;;;;14.97;100.00;100325.16;5011500;28;20220;-72
2021/08/26 07:30:18;;;;;;;6.47;3.97;;;;;;;15.09;100.00;100327.91;5011390;28;20513;-72
2021/08/26 07:32:43;;;;;;;4.90;2.47;;;;;;;15.16;100.00;100328.94;5011371;28;20208;-72
2021/08/26 07:35:09;;;;;;;8.23;2.70;;;;;;;15.19;100.00;100332.97;5011204;28;20177;-72
2021/08/26 07:37:35;;;;;;;9.43;3.63;;;;;;;15.21;100.00;100324.38;5006840;28;20184;-72
2021/08/26 07:40:00;;;;;;;7.20;3.00;;;;;;;15.21;100.00;100324.38;5011041;28;20196;-72
2021/08/26 07:42:25;;;;;;;9.13;3.20;;;;;;;15.24;100.00;100323.66;5009955;28;20314;-73
2021/08/26 07:44:51;;;;;;;9.63;3.27;;;;;;;15.26;100.00;100319.41;5011027;28;20216;-72
2021/08/26 07:47:16;;;;;;;6.50;2.73;;;;;;;15.24;100.00;100315.41;5010865;28;20191;-71
2021/08/26 07:49:42;;;;;;;7.43;3.07;;;;;;;15.30;100.00;100308.50;5011023;28;20611;-72
2021/08/26 07:52:07;;;;;;;5.47;2.77;;;;;;;15.33;100.00;100310.56;5009811;28;20184;-71
2021/08/26 07:54:32;;;;;;;8.13;3.47;;;;;;;15.40;100.00;100306.09;5010867;28;20183;-71
2021/08/26 07:56:58;;;;;;;9.70;3.63;;;;;;;15.45;100.00;100299.53;5009990;28;20628;-71
2021/08/26 07:59:24;;;;;;;8.17;3.00;;;;;;;15.43;100.00;100277.06;5011104;28;20180;-72
2021/08/26 08:01:49;;;;;;;2.43;1.93;;;;;;;15.48;100.00;100285.91;5011395;28;20181;-71
2021/08/26 08:04:15;;;;;;;8.77;3.37;;;;;;;15.52;100.00;100280.50;5010718;28;20253;-71
2021/08/26 08:06:41;;;;;;;8.07;3.40;;;;;;;15.55;100.00;100278.97;5011132;28;20196;-75
2021/08/26 08:09:06;;;;;;;4.30;2.97;;;;;;;15.65;100.00;100271.06;5011130;28;20184;-74
2021/08/26 08:11:31;;;;;;;9.20;2.97;;;;;;;15.69;100.00;100274.72;5011001;28;20267;-72
2021/08/26 08:13:57;;;;;;;3.57;2.63;;;;;;;15.66;100.00;100266.38;5010824;28;20204;-73
2021/08/26 08:16:22;;;;;;;7.40;2.80;;;;;;;15.62;100.00;100263.50;5011009;28;20510;-71
2021/08/26 08:18:47;;;;;;;9.80;3.20;;;;;;;15.65;100.00;100284.84;5010826;28;20195;-74
2021/08/26 08:21:13;;;;;;;4.63;2.67;;;;;;;15.71;100.00;100277.13;5011059;28;20222;-71
2021/08/26 08:23:38;;;;;;;5.53;2.40;;;;;;;15.74;100.00;100287.44;5010836;28;20177;-73
2021/08/26 08:26:10;;;;;;;4.43;2.20;;;;;;;15.75;100.00;100284.31;5010733;28;20302;-73
2021/08/26 08:28:35;;;;;;;10.50;2.80;;;;;;;15.83;100.00;100285.34;5010768;28;20172;-73
2021/08/26 08:31:00;;;;;;;5.87;2.97;;;;;;;15.87;100.00;100291.75;5010724;28;20655;-73
2021/08/26 08:33:26;;;;;;;3.53;2.37;;;;;;;15.88;100.00;100292.56;5010775;28;20177;-74
2021/08/26 08:35:51;;;;;;;3.40;2.23;;;;;;;15.90;100.00;100302.06;5013192;28;20176;-73
2021/08/26 08:38:16;;;;;;;15.50;3.67;;;;;;;15.94;100.00;100305.75;5014649;28;20168;-72
2021/08/26 08:40:45;;;;;;;5.63;3.87;;;;;;;15.99;100.00;100305.47;5014606;28;20301;-74
2021/08/26 08:43:11;;;;;;;8.67;2.80;;;;;;;16.05;100.00;100306.81;5014501;28;20176;-74
2021/08/26 08:45:36;;;;;;;4.20;2.53;;;;;;;16.08;100.00;100293.50;5014390;28;20219;-73
2021/08/26 08:48:04;;;;;;;6.13;3.60;;;;;;;16.17;100.00;100286.66;5014192;28;20180;-74
2021/08/26 08:50:31;;;;;;;10.50;2.93;;;;;;;16.35;100.00;100304.50;5014307;28;20172;-73
2021/08/26 08:52:58;;;;;;;10.73;3.57;;;;;;;16.32;100.00;100296.13;5013051;28;20260;-74
2021/08/26 08:55:23;;;;;;;5.70;2.87;;;;;;;16.33;100.00;100297.72;5014083;28;20683;-73
2021/08/26 08:57:49;;;;;;;5.00;2.90;;;;;;;16.31;100.00;100300.03;5014313;28;20180;-73
2021/08/26 09:00:17;;;;;;;5.60;2.43;;;;;;;16.35;100.00;100299.00;5014198;28;20188;-73
2021/08/26 09:02:43;;;;;;;4.80;3.50;;;;;;;16.46;100.00;100303.97;5014032;28;20311;-72
2021/08/26 09:05:09;;;;;;;6.90;4.03;;;;;;;16.49;100.00;100314.28;5014020;28;20571;-72
2021/08/26 09:07:35;;;;;;;10.73;3.53;;;;;;;16.50;100.00;100305.69;5014367;28;20181;-72
2021/08/26 09:10:02;;;;;;;5.07;2.60;;;;;;;16.50;100.00;100313.16;5014363;28;20184;-73
2021/08/26 09:12:40;;;;;;;7.87;2.67;;;;;;;16.49;100.00;100306.84;5012545;28;20176;-72
2021/08/26 09:15:10;;;;;;;6.30;3.30;;;;;;;16.49;100.00;100298.56;5013722;28;20177;-72
2021/08/26 09:17:37;;;;;;;10.27;3.10;;;;;;;16.43;100.00;100286.19;5013763;28;20195;-73
2021/08/26 09:20:09;;;;;;;8.13;3.90;;;;;;;16.47;100.00;100289.81;5013677;28;20212;-72
2021/08/26 09:22:34;;;;;;;7.00;3.57;;;;;;;16.48;100.00;100296.13;5013880;28;20207;-72
2021/08/26 09:24:59;;;;;;;7.23;3.57;;;;;;;16.46;100.00;100290.19;5013404;28;20256;-72
2021/08/26 09:27:31;;;;;;;10.43;2.30;;;;;;;16.58;100.00;100290.91;5013986;28;20183;-72
2021/08/26 09:30:11;;;;;;;7.70;3.90;;;;;;;16.60;100.00;100285.81;5012283;28;20172;-73
2021/08/26 09:32:57;;;;;;;13.07;4.43;;;;;;;16.74;100.00;100284.63;5012352;28;20593;-73
2021/08/26 09:35:30;;;;;;;8.77;2.63;;;;;;;16.74;100.00;100279.09;5013383;28;20285;-72
2021/08/26 09:38:00;;;;;;;7.27;3.40;;;;;;;16.74;100.00;100290.13;5012229;28;20202;-72
2021/08/26 09:40:28;;;;;;;4.60;1.97;;;;;;;16.83;100.00;100285.25;5013526;28;20280;-72
2021/08/26 09:43:05;;;;;;;7.07;3.30;;;;;;;16.96;100.00;100286.75;5013423;28;20177;-73
2021/08/26 09:45:31;;;;;;;8.23;3.47;;;;;;;17.00;100.00;100279.34;5012906;28;20204;-73
2021/08/26 09:48:04;;;;;;;6.17;3.50;;;;;;;17.02;100.00;100290.03;5012927;28;20787;-73
2021/08/26 09:50:50;;;;;;;6.87;3.33;;;;;;;17.20;100.00;100272.69;5013334;28;20537;-73
2021/08/26 09:53:18;;;;;;;8.47;3.23;;;;;;;17.13;99.15;100264.25;5013198;28;20218;-72
2021/08/26 09:56:05;;;;;;;4.73;3.13;;;;;;;17.11;100.00;100266.59;5013058;28;20165;-72
2021/08/26 09:58:33;;;;;;;8.03;2.00;;;;;;;17.13;100.00;100263.47;5013146;28;20176;-73
2021/08/26 10:01:12;;;;;;;8.73;3.93;;;;;;;17.29;100.00;100269.75;5013615;28;20176;-72
2021/08/26 10:03:37;;;;;;;7.60;3.70;;;;;;;17.41;98.80;100263.31;5013054;28;20315;-72
2021/08/26 10:06:03;;;;;;;9.70;3.20;;;;;;;17.49;96.44;100252.03;5008623;28;20684;-73
2021/08/26 10:08:32;;;;;;;3.37;2.50;;;;;;;17.58;97.31;100248.25;5012860;28;20228;-72
2021/08/26 10:11:00;;;;;;;5.73;3.10;;;;;;;17.59;96.31;100255.38;5012805;28;20690;-73
2021/08/26 10:13:27;;;;;;;7.70;3.67;;;;;;;17.56;95.25;100245.88;5011385;28;20234;-73
2021/08/26 10:15:53;;;;;;;5.63;2.50;;;;;;;17.55;92.19;100247.81;5012748;28;20183;-72
2021/08/26 10:18:18;;;;;;;7.00;2.63;;;;;;;17.54;92.46;100250.97;5012537;28;20193;-73
2021/08/26 10:20:44;;;;;;;9.07;2.83;;;;;;;17.45;94.07;100250.34;5012812;28;20275;-72
2021/08/26 10:23:11;;;;;;;7.03;2.83;;;;;;;17.36;95.00;100247.81;5012941;28;20458;-72
2021/08/26 10:25:43;;;;;;;1.83;1.67;;;;;;;17.31;92.73;100253.63;5012386;28;20204;-72
2021/08/26 10:28:10;;;;;;;4.57;2.97;;;;;;;17.27;91.76;100251.94;5012588;28;20251;-72
2021/08/26 10:30:39;;;;;;;6.57;2.50;;;;;;;17.23;90.47;100258.19;5012481;28;20264;-72
2021/08/26 10:33:13;;;;;;;4.10;1.77;;;;;;;17.29;90.35;100255.94;5012128;28;20208;-73
2021/08/26 10:35:50;;;;;;;9.13;3.07;;;;;;;17.36;90.65;100261.63;5012558;28;20176;-72
2021/08/26 10:38:25;;;;;;;8.07;3.10;;;;;;;17.44;91.89;100259.81;5012102;28;20179;-72
2021/08/26 10:40:51;;;;;;;4.63;2.30;;;;;;;17.41;92.56;100250.28;5012378;28;20527;-72
2021/08/26 10:43:38;;;;;;;6.00;3.00;;;;;;;17.40;94.68;100251.47;5013192;28;20212;-73
2021/08/26 10:46:06;;;;;;;1.43;1.33;;;;;;;17.33;96.67;100250.50;5016456;28;20489;-72
2021/08/26 10:48:32;;;;;;;5.73;1.97;;;;;;;17.14;95.26;100249.31;5017155;28;20181;-72
2021/08/26 10:51:22;;;;;;;1.90;1.53;;;;;;;17.01;95.99;100261.63;5012076;28;20263;-72
2021/08/26 10:53:49;;;;;;;3.67;2.13;;;;;;;16.86;100.00;100254.16;5015931;28;20199;-72
2021/08/26 10:56:26;;;;;;;3.47;2.43;;;;;;;16.82;100.00;100250.53;5030539;28;20184;-73
2021/08/26 10:58:56;;;;;;;3.90;1.83;;;;;;;16.52;100.00;100250.16;5030908;28;20223;-73
2021/08/26 11:01:27;;;;;;;5.37;2.57;;;;;;;16.22;100.00;100245.09;5025607;28;20192;-72
2021/08/26 11:03:54;;;;;;;3.40;1.80;;;;;;;15.99;100.00;100233.84;5012005;28;20198;-73
2021/08/26 11:06:19;;;;;;;7.20;2.10;;;;;;;15.88;100.00;100224.47;5011778;28;20204;-73
2021/08/26 11:08:53;;;;;;;2.77;1.07;;;;;;;15.70;100.00;100226.75;5011856;28;20223;-72
2021/08/26 11:11:27;;;;;;;2.13;1.47;;;;;;;15.63;100.00;100229.31;5011859;28;20239;-73
2021/08/26 11:14:02;;;;;;;2.60;1.87;;;;;;;15.58;100.00;100229.50;5001419;28;20181;-72
2021/08/26 11:16:27;;;;;;;2.23;1.60;;;;;;;15.61;100.00;100233.53;5003711;28;20707;-72
2021/08/26 11:19:15;;;;;;;2.50;1.73;;;;;;;15.61;100.00;100233.53;5003076;28;20369;-72
2021/08/26 11:21:44;;;;;;;3.80;1.80;;;;;;;15.64;100.00;100241.94;5007576;28;20381;-72